createdAt,value
2022-09-20T00:00:24.144Z,99.99
2022-09-20T00:01:24.202Z,99.99
2022-09-20T00:02:24.126Z,99.99
2022-09-20T00:03:24.074Z,99.99
2022-09-20T00:04:24.056Z,99.99
2022-09-20T00:05:24.082Z,99.99
2022-09-20T00:06:24.000Z,99.99
2022-09-20T00:07:24.013Z,99.99
2022-09-20T00:08:23.957Z,99.99
2022-09-20T00:09:23.946Z,99.99
2022-09-20T00:10:23.909Z,99.99
2022-09-20T00:11:23.894Z,99.99
2022-09-20T00:12:23.887Z,99.99
2022-09-20T00:13:23.837Z,99.99
2022-09-20T00:14:23.817Z,99.99
2022-09-20T00:15:23.808Z,99.99
2022-09-20T00:16:23.850Z,99.99
2022-09-20T00:17:23.747Z,99.99
2022-09-20T00:18:23.728Z,99.99
2022-09-20T00:19:23.710Z,99.99
2022-09-20T00:20:23.681Z,99.99
2022-09-20T00:21:23.649Z,99.99
2022-09-20T00:22:23.626Z,99.99
2022-09-20T00:23:23.599Z,99.99
2022-09-20T00:24:23.591Z,99.99
2022-09-20T00:25:23.555Z,99.99
2022-09-20T00:26:23.528Z,99.99
2022-09-20T00:27:23.506Z,99.99
2022-09-20T00:28:23.487Z,99.99
2022-09-20T00:29:23.456Z,99.99
2022-09-20T00:30:23.436Z,99.99
2022-09-20T00:31:23.466Z,99.99
2022-09-20T00:32:23.388Z,99.99
2022-09-20T00:33:23.362Z,99.99
2022-09-20T00:34:23.345Z,99.99
2022-09-20T00:35:23.321Z,99.99
2022-09-20T00:36:23.319Z,99.99
2022-09-20T00:37:23.276Z,99.99
2022-09-20T00:38:23.247Z,99.99
2022-09-20T00:39:23.222Z,99.99
2022-09-20T00:40:23.235Z,99.99
2022-09-20T00:41:23.177Z,99.99
2022-09-20T00:42:23.151Z,99.99
2022-09-20T00:43:23.127Z,99.99
2022-09-20T00:44:23.106Z,99.99
2022-09-20T00:45:23.112Z,99.99
2022-09-20T00:46:23.095Z,99.99
2022-09-20T00:47:23.033Z,99.99
2022-09-20T00:48:23.008Z,99.99
2022-09-20T00:49:22.984Z,99.99
2022-09-20T00:50:22.968Z,99.99
2022-09-20T00:51:22.941Z,99.99
2022-09-20T00:52:22.916Z,99.99
2022-09-20T00:53:22.898Z,99.99
2022-09-20T00:54:22.873Z,99.99
2022-09-20T00:55:22.847Z,99.99
2022-09-20T00:56:22.824Z,99.99
2022-09-20T00:57:22.808Z,99.99
2022-09-20T00:58:22.788Z,99.99
2022-09-20T00:59:22.775Z,99.99
2022-09-20T01:00:22.751Z,99.99
2022-09-20T01:01:22.771Z,99.99
2022-09-20T01:02:22.724Z,99.99
2022-09-20T01:03:22.665Z,99.99
2022-09-20T01:04:22.639Z,99.99
2022-09-20T01:05:22.612Z,99.99
2022-09-20T01:06:22.587Z,99.99
2022-09-20T01:07:22.569Z,99.99
2022-09-20T01:08:22.538Z,99.99
2022-09-20T01:09:22.556Z,99.99
2022-09-20T01:10:22.495Z,99.99
2022-09-20T01:11:22.467Z,99.99
2022-09-20T01:12:22.446Z,99.99
2022-09-20T01:13:22.422Z,99.99
2022-09-20T01:14:22.454Z,99.99
2022-09-20T01:15:22.374Z,99.99
2022-09-20T01:16:22.419Z,99.99
2022-09-20T01:17:22.329Z,99.99
2022-09-20T01:18:22.308Z,99.99
2022-09-20T01:19:22.278Z,99.99
2022-09-20T01:20:22.255Z,99.99
2022-09-20T01:21:22.244Z,99.99
2022-09-20T01:22:22.215Z,99.99
2022-09-20T01:23:22.182Z,99.99
2022-09-20T01:24:22.182Z,99.99
2022-09-20T01:25:22.183Z,99.99
2022-09-20T01:26:22.109Z,99.99
2022-09-20T01:27:22.089Z,99.99
2022-09-20T01:28:22.063Z,99.99
2022-09-20T01:29:22.043Z,99.99
2022-09-20T01:30:22.027Z,99.99
2022-09-20T01:31:22.060Z,99.99
2022-09-20T01:32:21.977Z,99.99
2022-09-20T01:33:21.947Z,99.99
2022-09-20T01:34:21.918Z,99.99
2022-09-20T01:35:21.904Z,99.99
2022-09-20T01:36:21.868Z,99.99
2022-09-20T01:37:21.849Z,99.99
2022-09-20T01:38:21.825Z,99.99
2022-09-20T01:39:21.802Z,99.99
2022-09-20T01:40:21.838Z,99.99
2022-09-20T01:41:21.761Z,99.99
2022-09-20T01:42:21.746Z,99.99
2022-09-20T01:43:21.711Z,99.99
2022-09-20T01:44:21.684Z,99.99
2022-09-20T01:45:21.667Z,99.99
2022-09-20T01:46:21.678Z,99.99
2022-09-20T01:47:21.613Z,99.99
2022-09-20T01:48:21.591Z,99.99
2022-09-20T01:49:21.561Z,99.99
2022-09-20T01:50:21.540Z,99.99
2022-09-20T01:51:21.532Z,99.99
2022-09-20T01:52:21.503Z,99.99
2022-09-20T01:53:21.490Z,99.99
2022-09-20T01:54:21.444Z,99.99
2022-09-20T01:55:21.420Z,99.99
2022-09-20T01:56:21.400Z,99.99
2022-09-20T01:57:26.484Z,99.99
2022-09-20T01:58:21.351Z,99.99
2022-09-20T01:59:24.369Z,99.99
2022-09-20T02:00:21.304Z,99.99
2022-09-20T02:01:21.867Z,99.99
2022-09-20T02:02:21.330Z,99.99
2022-09-20T02:03:21.248Z,99.99
2022-09-20T02:04:21.206Z,99.99
2022-09-20T02:05:21.200Z,99.99
2022-09-20T02:06:21.166Z,99.99
2022-09-20T02:07:21.137Z,99.99
2022-09-20T02:08:21.108Z,99.99
2022-09-20T02:09:21.083Z,99.99
2022-09-20T02:10:21.068Z,99.99
2022-09-20T02:11:21.075Z,99.99
2022-09-20T02:12:21.039Z,99.99
2022-09-20T02:13:20.996Z,99.99
2022-09-20T02:14:20.964Z,99.99
2022-09-20T02:15:20.941Z,99.99
2022-09-20T02:16:20.942Z,99.99
2022-09-20T02:17:20.887Z,99.99
2022-09-20T02:18:20.871Z,99.99
2022-09-20T02:19:28.679Z,99.99
2022-09-20T02:20:20.820Z,99.99
2022-09-20T02:21:20.801Z,99.99
2022-09-20T02:22:20.785Z,99.99
2022-09-20T02:23:20.775Z,99.99
2022-09-20T02:24:20.718Z,99.99
2022-09-20T02:25:20.701Z,99.99
2022-09-20T02:26:20.677Z,99.99
2022-09-20T02:27:20.662Z,99.99
2022-09-20T02:28:20.622Z,99.99
2022-09-20T02:29:20.600Z,99.99
2022-09-20T02:30:20.578Z,99.99
2022-09-20T02:31:20.588Z,99.99
2022-09-20T02:32:20.525Z,99.99
2022-09-20T02:33:20.508Z,99.99
2022-09-20T02:34:20.486Z,99.99
2022-09-20T02:35:20.472Z,99.99
2022-09-20T02:36:20.427Z,99.99
2022-09-20T02:37:20.408Z,99.99
2022-09-20T02:38:20.395Z,99.99
2022-09-20T02:39:20.357Z,99.99
2022-09-20T02:40:20.437Z,99.99
2022-09-20T02:41:20.307Z,99.99
2022-09-20T02:42:20.283Z,99.99
2022-09-20T02:43:20.261Z,99.99
2022-09-20T02:44:20.229Z,99.99
2022-09-20T02:45:20.215Z,99.99
2022-09-20T02:46:20.335Z,99.99
2022-09-20T02:47:20.170Z,99.99
2022-09-20T02:48:20.151Z,99.99
2022-09-20T02:49:20.109Z,99.99
2022-09-20T02:50:20.093Z,99.99
2022-09-20T02:51:20.073Z,99.99
2022-09-20T02:52:20.037Z,99.99
2022-09-20T02:53:20.041Z,99.99
2022-09-20T02:54:19.991Z,99.99
2022-09-20T02:55:19.970Z,99.99
2022-09-20T02:56:19.942Z,99.99
2022-09-20T02:57:19.915Z,99.99
2022-09-20T02:58:19.906Z,99.99
2022-09-20T02:59:19.868Z,99.99
2022-09-20T03:00:19.852Z,99.99
2022-09-20T03:01:19.942Z,99.99
2022-09-20T03:02:19.858Z,99.99
2022-09-20T03:03:19.771Z,99.99
2022-09-20T03:04:19.748Z,99.99
2022-09-20T03:05:19.724Z,99.99
2022-09-20T03:06:19.699Z,99.99
2022-09-20T03:07:19.669Z,99.99
2022-09-20T03:08:19.688Z,99.99
2022-09-20T03:09:19.627Z,99.99
2022-09-20T03:10:19.597Z,99.99
2022-09-20T03:11:19.571Z,99.99
2022-09-20T03:12:19.553Z,99.99
2022-09-20T03:13:19.531Z,99.99
2022-09-20T03:14:19.500Z,99.99
2022-09-20T03:15:19.500Z,99.99
2022-09-20T03:16:19.509Z,99.99
2022-09-20T03:17:19.432Z,99.99
2022-09-20T03:18:19.416Z,99.99
2022-09-20T03:19:19.376Z,99.99
2022-09-20T03:20:19.349Z,99.99
2022-09-20T03:21:19.328Z,99.99
2022-09-20T03:22:19.319Z,99.99
2022-09-20T03:23:19.276Z,99.99
2022-09-20T03:24:19.256Z,99.99
2022-09-20T03:25:19.228Z,99.99
2022-09-20T03:26:19.226Z,99.99
2022-09-20T03:27:19.181Z,99.99
2022-09-20T03:28:19.165Z,99.99
2022-09-20T03:29:19.127Z,99.99
2022-09-20T03:30:19.114Z,99.99
2022-09-20T03:31:19.164Z,99.99
2022-09-20T03:32:19.055Z,99.99
2022-09-20T03:33:19.042Z,99.99
2022-09-20T03:34:19.025Z,99.99
2022-09-20T03:35:19.004Z,99.99
2022-09-20T03:36:18.962Z,99.99
2022-09-20T03:37:18.953Z,99.99
2022-09-20T03:38:18.908Z,99.99
2022-09-20T03:39:18.888Z,99.99
2022-09-20T03:40:18.905Z,99.99
2022-09-20T03:41:18.838Z,99.99
2022-09-20T03:42:18.838Z,99.99
2022-09-20T03:43:18.797Z,99.99
2022-09-20T03:44:18.762Z,99.99
2022-09-20T03:45:18.735Z,99.99
2022-09-20T03:46:18.811Z,99.99
2022-09-20T03:47:18.718Z,99.99
2022-09-20T03:48:18.681Z,99.99
2022-09-20T03:49:18.636Z,99.99
2022-09-20T03:50:18.630Z,99.99
2022-09-20T03:51:18.593Z,99.99
2022-09-20T03:52:18.574Z,99.99
2022-09-20T03:53:18.554Z,99.99
2022-09-20T03:54:18.546Z,99.99
2022-09-20T03:55:18.501Z,99.99
2022-09-20T03:56:18.477Z,99.99
2022-09-20T03:57:18.448Z,99.99
2022-09-20T03:58:18.430Z,99.99
2022-09-20T03:59:18.408Z,99.99
2022-09-20T04:00:18.370Z,99.99
2022-09-20T04:01:18.375Z,99.99
2022-09-20T04:02:18.418Z,99.99
2022-09-20T04:03:18.372Z,99.99
2022-09-20T04:04:18.278Z,99.99
2022-09-20T04:05:18.248Z,99.99
2022-09-20T04:06:18.225Z,99.99
2022-09-20T04:07:18.200Z,99.99
2022-09-20T04:08:18.172Z,99.99
2022-09-20T04:09:18.145Z,99.99
2022-09-20T04:10:18.150Z,99.99
2022-09-20T04:11:18.110Z,99.99
2022-09-20T04:12:18.082Z,99.99
2022-09-20T04:13:18.047Z,99.99
2022-09-20T04:14:18.036Z,99.99
2022-09-20T04:15:18.021Z,99.99
2022-09-20T04:16:18.057Z,99.99
2022-09-20T04:17:17.952Z,99.99
2022-09-20T04:18:17.931Z,99.99
2022-09-20T04:19:17.944Z,99.99
2022-09-20T04:20:17.882Z,99.99
2022-09-20T04:21:17.860Z,99.99
2022-09-20T04:22:17.829Z,99.99
2022-09-20T04:23:17.830Z,99.99
2022-09-20T04:24:17.782Z,99.99
2022-09-20T04:25:17.761Z,99.99
2022-09-20T04:26:17.740Z,99.99
2022-09-20T04:27:17.711Z,99.99
2022-09-20T04:28:17.677Z,99.99
2022-09-20T04:29:17.668Z,99.99
2022-09-20T04:30:17.638Z,99.99
2022-09-20T04:31:20.766Z,99.99
2022-09-20T04:32:17.652Z,99.99
2022-09-20T04:33:17.565Z,99.99
2022-09-20T04:34:17.534Z,99.99
2022-09-20T04:35:17.524Z,99.99
2022-09-20T04:36:17.490Z,99.99
2022-09-20T04:37:17.458Z,99.99
2022-09-20T04:38:17.439Z,99.99
2022-09-20T04:39:17.414Z,99.99
2022-09-20T04:40:17.459Z,99.99
2022-09-20T04:41:17.359Z,99.99
2022-09-20T04:42:17.350Z,99.99
2022-09-20T04:43:17.312Z,99.99
2022-09-20T04:44:17.284Z,99.99
2022-09-20T04:45:17.258Z,99.99
2022-09-20T04:46:17.286Z,99.99
2022-09-20T04:47:17.219Z,99.99
2022-09-20T04:48:17.199Z,99.99
2022-09-20T04:49:17.162Z,99.99
2022-09-20T04:50:17.133Z,99.99
2022-09-20T04:51:17.114Z,99.99
2022-09-20T04:52:17.119Z,99.99
2022-09-20T04:53:17.090Z,99.99
2022-09-20T04:54:17.062Z,99.99
2022-09-20T04:55:17.015Z,99.99
2022-09-20T04:56:16.990Z,99.99
2022-09-20T04:57:16.964Z,99.99
2022-09-20T04:58:16.941Z,99.99
2022-09-20T04:59:16.917Z,99.99
2022-09-20T05:00:16.905Z,99.99
2022-09-20T05:01:17.207Z,99.99
2022-09-20T05:02:16.975Z,99.99
2022-09-20T05:03:16.883Z,99.99
2022-09-20T05:04:16.797Z,99.99
2022-09-20T05:05:16.772Z,99.99
2022-09-20T05:06:16.740Z,99.99
2022-09-20T05:07:16.716Z,99.99
2022-09-20T05:08:16.693Z,99.99
2022-09-20T05:09:16.680Z,99.99
2022-09-20T05:10:16.647Z,99.99
2022-09-20T05:11:16.629Z,99.99
2022-09-20T05:12:16.586Z,99.99
2022-09-20T05:13:16.564Z,99.99
2022-09-20T05:14:16.560Z,99.99
2022-09-20T05:15:16.519Z,99.99
2022-09-20T05:16:16.524Z,99.99
2022-09-20T05:17:16.477Z,99.99
2022-09-20T05:18:16.441Z,99.99
2022-09-20T05:19:16.418Z,99.99
2022-09-20T05:20:16.388Z,99.99
2022-09-20T05:21:16.371Z,99.99
2022-09-20T05:22:16.367Z,99.99
2022-09-20T05:23:16.319Z,99.99
2022-09-20T05:24:16.609Z,99.99
2022-09-20T05:25:16.275Z,99.99
2022-09-20T05:26:16.248Z,99.99
2022-09-20T05:27:16.235Z,99.99
2022-09-20T05:28:16.193Z,99.99
2022-09-20T05:29:16.168Z,99.99
2022-09-20T05:30:16.145Z,99.99
2022-09-20T05:31:16.120Z,99.99
2022-09-20T05:32:16.093Z,99.99
2022-09-20T05:33:16.065Z,99.99
2022-09-20T05:34:16.044Z,99.99
2022-09-20T05:35:16.026Z,99.99
2022-09-20T05:36:15.991Z,99.99
2022-09-20T05:37:15.994Z,99.99
2022-09-20T05:38:15.997Z,99.99
2022-09-20T05:39:15.920Z,99.99
2022-09-20T05:40:15.934Z,99.99
2022-09-20T05:41:15.872Z,99.99
2022-09-20T05:42:15.844Z,99.99
2022-09-20T05:43:15.837Z,99.99
2022-09-20T05:44:15.808Z,99.99
2022-09-20T05:45:15.768Z,99.99
2022-09-20T05:46:15.788Z,99.99
2022-09-20T05:47:15.719Z,99.99
2022-09-20T05:48:15.695Z,99.99
2022-09-20T05:49:15.674Z,99.99
2022-09-20T05:50:15.652Z,99.99
2022-09-20T05:51:15.624Z,99.99
2022-09-20T05:52:15.598Z,99.99
2022-09-20T05:53:15.575Z,99.99
2022-09-20T05:54:15.553Z,99.99
2022-09-20T05:55:15.527Z,99.99
2022-09-20T05:56:15.502Z,99.99
2022-09-20T05:57:15.478Z,99.99
2022-09-20T05:58:15.454Z,99.99
2022-09-20T05:59:15.600Z,99.99
2022-09-20T06:00:15.402Z,99.99
2022-09-20T06:01:15.381Z,99.99
2022-09-20T06:02:15.451Z,99.99
2022-09-20T06:03:15.329Z,99.99
2022-09-20T06:04:15.312Z,99.99
2022-09-20T06:05:15.290Z,99.99
2022-09-20T06:06:15.255Z,99.99
2022-09-20T06:07:15.234Z,99.99
2022-09-20T06:08:15.209Z,99.99
2022-09-20T06:09:15.178Z,99.99
2022-09-20T06:10:15.172Z,99.99
2022-09-20T06:11:15.134Z,99.99
2022-09-20T06:12:15.105Z,99.99
2022-09-20T06:13:15.101Z,99.99
2022-09-20T06:14:15.056Z,99.99
2022-09-20T06:15:15.042Z,99.99
2022-09-20T06:16:15.055Z,99.99
2022-09-20T06:17:14.987Z,99.99
2022-09-20T06:18:14.988Z,99.99
2022-09-20T06:19:14.937Z,99.99
2022-09-20T06:20:14.914Z,99.99
2022-09-20T06:21:14.891Z,99.99
2022-09-20T06:22:14.863Z,99.99
2022-09-20T06:23:14.841Z,99.99
2022-09-20T06:24:14.814Z,99.99
2022-09-20T06:25:14.791Z,99.99
2022-09-20T06:26:14.776Z,99.99
2022-09-20T06:27:14.746Z,99.99
2022-09-20T06:28:14.728Z,99.99
2022-09-20T06:29:14.691Z,99.99
2022-09-20T06:30:14.669Z,99.99
2022-09-20T06:31:14.647Z,99.99
2022-09-20T06:32:14.637Z,99.99
2022-09-20T06:33:14.617Z,99.99
2022-09-20T06:34:14.576Z,99.99
2022-09-20T06:35:14.551Z,99.99
2022-09-20T06:36:14.530Z,99.99
2022-09-20T06:37:14.523Z,99.99
2022-09-20T06:38:14.479Z,99.99
2022-09-20T06:39:14.458Z,99.99
2022-09-20T06:40:14.467Z,99.99
2022-09-20T06:41:14.404Z,99.99
2022-09-20T06:42:14.383Z,99.99
2022-09-20T06:43:14.360Z,99.99
2022-09-20T06:44:14.340Z,99.99
2022-09-20T06:45:14.314Z,99.99
2022-09-20T06:46:14.367Z,99.99
2022-09-20T06:47:14.281Z,99.99
2022-09-20T06:48:14.241Z,99.99
2022-09-20T06:49:14.230Z,99.99
2022-09-20T06:50:14.207Z,99.99
2022-09-20T06:51:14.192Z,99.99
2022-09-20T06:52:14.146Z,99.99
2022-09-20T06:53:14.132Z,99.99
2022-09-20T06:54:14.102Z,99.99
2022-09-20T06:55:14.087Z,99.99
2022-09-20T06:56:14.053Z,99.99
2022-09-20T06:57:14.045Z,99.99
2022-09-20T06:58:14.024Z,99.99
2022-09-20T06:59:13.983Z,99.99
2022-09-20T07:00:13.980Z,99.99
2022-09-20T07:01:14.081Z,99.99
2022-09-20T07:02:13.961Z,99.99
2022-09-20T07:03:13.890Z,99.99
2022-09-20T07:04:13.869Z,99.99
2022-09-20T07:05:13.851Z,99.99
2022-09-20T07:06:13.822Z,99.99
2022-09-20T07:07:13.800Z,99.99
2022-09-20T07:08:13.813Z,99.99
2022-09-20T07:09:13.763Z,99.99
2022-09-20T07:10:13.731Z,99.99
2022-09-20T07:11:13.710Z,99.99
2022-09-20T07:12:13.702Z,99.99
2022-09-20T07:13:13.669Z,99.99
2022-09-20T07:14:13.646Z,99.99
2022-09-20T07:15:13.678Z,99.99
2022-09-20T07:16:13.660Z,99.99
2022-09-20T07:17:13.578Z,99.99
2022-09-20T07:18:13.563Z,99.99
2022-09-20T07:19:13.538Z,99.99
2022-09-20T07:20:13.508Z,99.99
2022-09-20T07:21:13.503Z,99.99
2022-09-20T07:22:13.483Z,99.99
2022-09-20T07:23:13.453Z,99.99
2022-09-20T07:24:13.420Z,99.99
2022-09-20T07:25:13.397Z,99.99
2022-09-20T07:26:13.386Z,99.99
2022-09-20T07:27:13.358Z,99.99
2022-09-20T07:28:13.341Z,99.99
2022-09-20T07:29:13.327Z,99.99
2022-09-20T07:30:13.309Z,99.99
2022-09-20T07:31:13.269Z,99.99
2022-09-20T07:32:13.255Z,99.99
2022-09-20T07:33:13.223Z,99.99
2022-09-20T07:34:13.224Z,99.99
2022-09-20T07:35:13.180Z,99.99
2022-09-20T07:36:13.160Z,99.99
2022-09-20T07:37:13.137Z,99.99
2022-09-20T07:38:13.118Z,99.99
2022-09-20T07:39:13.102Z,99.99
2022-09-20T07:40:13.108Z,99.99
2022-09-20T07:41:13.058Z,99.99
2022-09-20T07:42:13.037Z,99.99
2022-09-20T07:43:13.020Z,99.99
2022-09-20T07:44:13.001Z,99.99
2022-09-20T07:45:12.972Z,99.99
2022-09-20T07:46:12.965Z,99.99
2022-09-20T07:47:12.932Z,99.99
2022-09-20T07:48:12.915Z,99.99
2022-09-20T07:49:12.892Z,99.99
2022-09-20T07:50:12.873Z,99.99
2022-09-20T07:51:12.854Z,99.99
2022-09-20T07:52:12.836Z,99.99
2022-09-20T07:53:12.809Z,99.99
2022-09-20T07:54:12.799Z,99.99
2022-09-20T07:55:12.768Z,99.99
2022-09-20T07:56:12.774Z,99.99
2022-09-20T07:57:12.748Z,99.99
2022-09-20T07:58:12.714Z,99.99
2022-09-20T07:59:12.689Z,99.99
2022-09-20T08:00:12.710Z,99.99
2022-09-20T08:01:12.729Z,99.99
2022-09-20T08:02:12.700Z,99.99
2022-09-20T08:03:12.616Z,99.99
2022-09-20T08:04:12.600Z,99.99
2022-09-20T08:05:12.570Z,99.99
2022-09-20T08:06:12.547Z,99.99
2022-09-20T08:07:12.532Z,99.99
2022-09-20T08:08:12.507Z,99.99
2022-09-20T08:09:12.488Z,99.99
2022-09-20T08:10:12.472Z,99.99
2022-09-20T08:11:12.454Z,99.99
2022-09-20T08:14:12.386Z,99.99
2022-09-20T08:15:12.373Z,99.99
2022-09-20T08:16:12.360Z,99.99
2022-09-20T08:17:12.335Z,99.99
2022-09-20T08:18:12.305Z,99.99
2022-09-20T08:19:12.308Z,99.99
2022-09-20T08:20:12.268Z,99.99
2022-09-20T08:21:12.250Z,99.99
2022-09-20T08:22:12.231Z,99.99
2022-09-20T08:23:23.380Z,99.99
2022-09-20T08:24:12.196Z,99.99
2022-09-20T08:25:12.163Z,99.99
2022-09-20T08:26:12.142Z,99.99
2022-09-20T08:27:12.127Z,99.99
2022-09-20T08:28:12.114Z,99.99
2022-09-20T08:29:12.114Z,99.99
2022-09-20T08:30:12.065Z,99.99
2022-09-20T08:31:12.043Z,99.99
2022-09-20T08:32:12.025Z,99.99
2022-09-20T08:33:12.004Z,99.99
2022-09-20T08:34:11.992Z,99.99
2022-09-20T08:35:11.987Z,99.99
2022-09-20T08:36:11.941Z,99.99
2022-09-20T08:37:11.921Z,99.99
2022-09-20T08:40:11.888Z,99.99
2022-09-20T08:41:11.845Z,99.99
2022-09-20T08:42:11.871Z,99.99
2022-09-20T08:43:11.821Z,99.99
2022-09-20T08:44:11.781Z,99.99
2022-09-20T08:45:21.870Z,99.99
2022-09-20T08:46:11.772Z,99.99
2022-09-20T08:47:11.725Z,99.99
2022-09-20T08:48:14.202Z,99.99
2022-09-20T08:49:11.731Z,99.99
2022-09-20T08:50:12.318Z,99.99
2022-09-20T08:51:11.651Z,99.99
2022-09-20T08:52:11.627Z,99.99
2022-09-20T08:53:11.606Z,99.99
2022-09-20T08:54:11.594Z,99.99
2022-09-20T08:55:11.571Z,99.99
2022-09-20T08:56:11.582Z,99.99
2022-09-20T08:57:11.537Z,99.99
2022-09-20T08:58:11.534Z,99.99
2022-09-20T08:59:11.493Z,99.99
2022-09-20T09:00:11.505Z,99.99
2022-09-20T09:01:11.535Z,99.99
2022-09-20T09:02:11.481Z,99.99
2022-09-20T09:03:11.423Z,99.99
2022-09-20T09:04:11.409Z,99.99
2022-09-20T09:05:11.385Z,99.99
2022-09-20T09:06:14.233Z,99.99
2022-09-20T09:07:11.348Z,99.99
2022-09-20T09:08:11.346Z,99.99
2022-09-20T09:09:11.316Z,99.99
2022-09-20T09:10:11.294Z,99.99
2022-09-20T09:11:11.357Z,99.99
2022-09-20T09:12:11.291Z,99.99
2022-09-20T09:13:11.239Z,99.99
2022-09-20T09:14:11.224Z,99.99
2022-09-20T09:15:11.201Z,99.99
2022-09-20T09:16:11.247Z,99.99
2022-09-20T09:17:11.216Z,99.99
2022-09-20T09:18:11.141Z,99.99
2022-09-20T09:19:11.124Z,99.99
2022-09-20T09:20:11.113Z,99.99
2022-09-20T09:21:11.088Z,99.99
2022-09-20T09:22:11.070Z,99.99
2022-09-20T09:23:11.047Z,99.99
2022-09-20T09:24:11.060Z,99.99
2022-09-20T09:25:11.016Z,99.99
2022-09-20T09:26:11.002Z,99.99
2022-09-20T09:27:10.976Z,99.99
2022-09-20T09:28:10.970Z,99.99
2022-09-20T09:29:10.932Z,99.99
2022-09-20T09:30:10.918Z,99.99
2022-09-20T09:31:10.904Z,99.99
2022-09-20T09:32:10.926Z,99.99
2022-09-20T09:33:10.858Z,99.99
2022-09-20T09:34:10.848Z,99.99
2022-09-20T09:35:10.823Z,99.99
2022-09-20T09:36:10.807Z,99.99
2022-09-20T09:37:10.804Z,99.99
2022-09-20T09:38:10.794Z,99.99
2022-09-20T09:39:10.754Z,99.99
2022-09-20T09:40:10.785Z,99.99
2022-09-20T09:41:10.723Z,99.99
2022-09-20T09:42:10.700Z,99.99
2022-09-20T09:43:10.687Z,99.99
2022-09-20T09:44:10.651Z,99.99
2022-09-20T09:45:10.647Z,99.99
2022-09-20T09:46:10.678Z,99.99
2022-09-20T09:47:10.600Z,99.99
2022-09-20T09:48:10.603Z,99.99
2022-09-20T09:49:12.558Z,99.99
2022-09-20T09:50:10.602Z,99.99
2022-09-20T09:51:10.534Z,99.99
2022-09-20T09:52:10.522Z,99.99
2022-09-20T09:53:10.493Z,99.99
2022-09-20T09:54:10.477Z,99.99
2022-09-20T09:55:10.459Z,99.99
2022-09-20T09:56:13.992Z,99.99
2022-09-20T09:57:10.424Z,99.99
2022-09-20T09:58:10.425Z,99.99
2022-09-20T09:59:10.396Z,99.99
2022-09-20T10:00:17.067Z,99.99
2022-09-20T10:01:10.521Z,99.99
2022-09-20T10:02:10.379Z,99.99
2022-09-20T10:03:10.325Z,99.99
2022-09-20T10:04:10.303Z,99.99
2022-09-20T10:05:10.281Z,99.99
2022-09-20T10:06:10.270Z,99.99
2022-09-20T10:07:10.247Z,99.99
2022-09-20T10:08:10.227Z,99.99
2022-09-20T10:09:10.226Z,99.99
2022-09-20T10:10:10.212Z,99.99
2022-09-20T10:11:10.188Z,99.99
2022-09-20T10:12:10.167Z,99.99
2022-09-20T10:13:10.146Z,99.99
2022-09-20T10:14:10.132Z,99.99
2022-09-20T10:15:10.124Z,99.99
2022-09-20T10:16:10.143Z,99.99
2022-09-20T10:17:10.087Z,99.99
2022-09-20T10:18:10.074Z,99.99
2022-09-20T10:19:10.055Z,99.99
2022-09-20T10:20:10.030Z,99.99
2022-09-20T10:21:10.022Z,99.99
2022-09-20T10:22:10.008Z,99.99
2022-09-20T10:24:09.972Z,99.99
2022-09-20T10:25:09.972Z,99.99
2022-09-20T10:26:09.939Z,99.99
2022-09-20T10:27:09.943Z,99.63
2022-09-20T10:28:09.925Z,99.99
2022-09-20T10:29:09.921Z,98.44
2022-09-20T10:30:09.963Z,98.39
2022-09-20T10:31:09.908Z,98.72
2022-09-20T10:32:12.600Z,97.86
2022-09-20T10:33:09.850Z,99.99
2022-09-20T10:34:09.820Z,97.38
2022-09-20T10:35:09.822Z,94.30
2022-09-20T10:36:09.822Z,94.68
2022-09-20T10:37:09.806Z,93.68
2022-09-20T10:38:09.764Z,93.91
2022-09-20T10:39:09.762Z,93.82
2022-09-20T10:40:09.886Z,93.09
2022-09-20T10:41:09.724Z,91.03
2022-09-20T10:42:09.717Z,96.08
2022-09-20T10:43:09.700Z,96.61
2022-09-20T10:44:09.684Z,97.09
2022-09-20T10:45:09.686Z,97.95
2022-09-20T10:47:09.701Z,99.99
2022-09-20T10:48:09.654Z,99.99
2022-09-20T10:49:09.691Z,99.11
2022-09-20T10:50:09.603Z,99.69
2022-09-20T10:51:09.590Z,94.01
2022-09-20T10:52:09.578Z,92.28
2022-09-20T10:53:09.563Z,93.62
2022-09-20T10:54:09.549Z,94.30
2022-09-20T10:55:09.544Z,93.48
2022-09-20T10:56:09.558Z,97.52
2022-09-20T10:57:09.522Z,97.62
2022-09-20T10:58:09.503Z,90.20
2022-09-20T10:59:09.493Z,87.50
2022-09-20T11:00:09.495Z,85.61
2022-09-20T11:01:09.487Z,86.29
2022-09-20T11:02:09.496Z,86.39
2022-09-20T11:03:09.446Z,86.77
2022-09-20T11:04:09.439Z,88.65
2022-09-20T11:05:09.429Z,92.16
2022-09-20T11:06:09.435Z,86.66
2022-09-20T11:07:09.410Z,81.09
2022-09-20T11:08:09.393Z,80.60
2022-09-20T11:09:13.294Z,84.69
2022-09-20T11:10:09.378Z,89.85
2022-09-20T11:11:09.373Z,88.15
2022-09-20T11:12:09.367Z,82.96
2022-09-20T11:13:09.350Z,83.45
2022-09-20T11:14:09.346Z,86.59
2022-09-20T11:15:09.361Z,87.99
2022-09-20T11:16:09.387Z,88.24
2022-09-20T11:17:09.333Z,90.35
2022-09-20T11:18:09.321Z,91.66
2022-09-20T11:19:09.327Z,91.36
2022-09-20T11:20:09.290Z,89.44
2022-09-20T11:21:09.282Z,88.04
2022-09-20T11:22:09.269Z,89.01
2022-09-20T11:23:09.255Z,93.24
2022-09-20T11:24:09.249Z,87.93
2022-09-20T11:25:09.242Z,88.65
2022-09-20T11:26:09.226Z,84.11
2022-09-20T11:27:09.226Z,81.27
2022-09-20T11:28:09.220Z,87.54
2022-09-20T11:29:09.203Z,85.24
2022-09-20T11:30:09.219Z,85.25
2022-09-20T11:31:09.194Z,87.46
2022-09-20T11:32:09.224Z,88.67
2022-09-20T11:33:09.164Z,90.26
2022-09-20T11:34:09.158Z,95.36
2022-09-20T11:35:09.153Z,96.90
2022-09-20T11:36:09.144Z,94.64
2022-09-20T11:37:09.128Z,95.79
2022-09-20T11:38:09.137Z,97.57
2022-09-20T11:39:09.105Z,97.38
2022-09-20T11:40:09.146Z,97.33
2022-09-20T11:41:09.089Z,98.86
2022-09-20T11:42:09.082Z,98.53
2022-09-20T11:43:09.085Z,99.99
2022-09-20T11:44:09.048Z,99.29
2022-09-20T11:45:09.048Z,99.99
2022-09-20T11:46:09.102Z,99.99
2022-09-20T11:47:09.019Z,98.24
2022-09-20T11:48:09.026Z,99.99
2022-09-20T11:49:08.984Z,98.29
2022-09-20T11:50:09.035Z,99.01
2022-09-20T11:51:08.963Z,98.44
2022-09-20T11:52:08.950Z,94.64
2022-09-20T11:53:08.951Z,92.22
2022-09-20T11:54:09.077Z,92.71
2022-09-20T11:55:08.915Z,91.51
2022-09-20T11:56:08.927Z,93.53
2022-09-20T11:57:08.893Z,94.30
2022-09-20T11:58:08.899Z,93.15
2022-09-20T11:59:08.869Z,92.52
2022-09-20T12:00:08.925Z,90.98
2022-09-20T12:01:08.848Z,90.65
2022-09-20T12:02:08.870Z,93.19
2022-09-20T12:03:09.003Z,96.99
2022-09-20T12:04:31.186Z,97.42
2022-09-20T12:05:08.802Z,93.73
2022-09-20T12:06:08.797Z,96.13
2022-09-20T12:07:11.448Z,95.84
2022-09-20T12:08:08.765Z,98.05
2022-09-20T12:09:08.750Z,98.48
2022-09-20T12:10:08.801Z,99.15
2022-09-20T12:11:08.731Z,99.77
2022-09-20T12:12:08.717Z,99.91
2022-09-20T12:13:08.695Z,99.72
2022-09-20T12:14:08.681Z,99.99
2022-09-20T12:15:08.666Z,99.99
2022-09-20T12:16:08.691Z,99.99
2022-09-20T12:17:08.649Z,99.99
2022-09-20T12:18:09.473Z,99.99
2022-09-20T12:19:08.684Z,99.99
2022-09-20T12:20:08.589Z,99.99
2022-09-20T12:21:09.045Z,99.99
2022-09-20T12:22:08.561Z,99.99
2022-09-20T12:23:08.534Z,99.99
2022-09-20T12:24:08.516Z,99.99
2022-09-20T12:25:08.524Z,99.99
2022-09-20T12:26:08.495Z,99.99
2022-09-20T12:27:08.467Z,99.99
2022-09-20T12:28:08.467Z,99.99
2022-09-20T12:29:08.463Z,99.99
2022-09-20T12:30:08.417Z,99.99
2022-09-20T12:31:08.417Z,99.99
2022-09-20T12:32:08.384Z,99.99
2022-09-20T12:33:08.360Z,99.99
2022-09-20T12:34:08.351Z,99.99
2022-09-20T12:35:08.330Z,99.99
2022-09-20T12:36:08.310Z,99.99
2022-09-20T12:37:08.295Z,99.99
2022-09-20T12:38:08.298Z,99.99
2022-09-20T12:39:08.254Z,99.99
2022-09-20T12:40:08.254Z,99.99
2022-09-20T12:41:08.243Z,99.99
2022-09-20T12:42:08.198Z,99.99
2022-09-20T12:43:08.176Z,99.99
2022-09-20T12:44:08.158Z,99.99
2022-09-20T12:45:08.149Z,99.99
2022-09-20T12:46:12.070Z,99.99
2022-09-20T12:47:08.115Z,99.99
2022-09-20T12:48:08.080Z,99.99
2022-09-20T12:49:08.080Z,99.99
2022-09-20T12:50:08.037Z,99.99
2022-09-20T12:51:08.020Z,99.99
2022-09-20T12:52:07.999Z,99.99
2022-09-20T12:53:07.981Z,99.99
2022-09-20T12:54:07.958Z,99.99
2022-09-20T12:55:11.002Z,99.99
2022-09-20T12:56:07.978Z,99.99
2022-09-20T12:57:07.901Z,99.99
2022-09-20T12:58:07.884Z,99.99